sensor_id;sensor_type;location;lat;lon;timestamp;temperature;humidity
51908;DHT22;39320;53.214;6.556;2022-07-29T00:00:06;18.00;99.90
51908;DHT22;39320;53.214;6.556;2022-07-29T00:02:32;18.00;99.90
51908;DHT22;39320;53.214;6.556;2022-07-29T00:04:58;17.90;99.90
51908;DHT22;39320;53.214;6.556;2022-07-29T00:07:24;17.90;99.90
51908;DHT22;39320;53.214;6.556;2022-07-29T00:09:49;17.90;99.90
51908;DHT22;39320;53.214;6.556;2022-07-29T00:12:15;18.00;99.90
51908;DHT22;39320;53.214;6.556;2022-07-29T00:14:41;17.90;99.90
51908;DHT22;39320;53.214;6.556;2022-07-29T00:17:07;17.90;99.90
51908;DHT22;39320;53.214;6.556;2022-07-29T00:19:32;18.00;99.90
51908;DHT22;39320;53.214;6.556;2022-07-29T00:22:00;17.90;99.90
51908;DHT22;39320;53.214;6.556;2022-07-29T00:24:26;17.90;99.90
51908;DHT22;39320;53.214;6.556;2022-07-29T00:26:52;17.90;99.90
51908;DHT22;39320;53.214;6.556;2022-07-29T00:29:18;17.90;99.90
51908;DHT22;39320;53.214;6.556;2022-07-29T00:31:43;17.90;99.90
51908;DHT22;39320;53.214;6.556;2022-07-29T00:34:09;17.90;99.90
51908;DHT22;39320;53.214;6.556;2022-07-29T00:36:55;17.90;99.90
51908;DHT22;39320;53.214;6.556;2022-07-29T00:39:21;17.90;99.90
51908;DHT22;39320;53.214;6.556;2022-07-29T00:41:47;17.90;99.90
51908;DHT22;39320;53.214;6.556;2022-07-29T00:44:12;17.90;99.90
51908;DHT22;39320;53.214;6.556;2022-07-29T00:46:38;17.90;99.90
51908;DHT22;39320;53.214;6.556;2022-07-29T00:49:04;17.90;99.90
51908;DHT22;39320;53.214;6.556;2022-07-29T00:51:30;17.90;99.90
51908;DHT22;39320;53.214;6.556;2022-07-29T00:53:57;18.00;99.90
51908;DHT22;39320;53.214;6.556;2022-07-29T00:56:22;18.00;99.90
51908;DHT22;39320;53.214;6.556;2022-07-29T00:58:50;18.00;99.90
51908;DHT22;39320;53.214;6.556;2022-07-29T01:01:16;18.00;99.90
51908;DHT22;39320;53.214;6.556;2022-07-29T01:03:42;18.00;99.90
51908;DHT22;39320;53.214;6.556;2022-07-29T01:06:09;18.00;99.90
51908;DHT22;39320;53.214;6.556;2022-07-29T01:08:35;18.00;99.90
51908;DHT22;39320;53.214;6.556;2022-07-29T01:11:02;18.00;99.90
51908;DHT22;39320;53.214;6.556;2022-07-29T01:13:29;18.00;99.90
51908;DHT22;39320;53.214;6.556;2022-07-29T01:16:06;18.00;99.90
51908;DHT22;39320;53.214;6.556;2022-07-29T01:18:44;18.00;99.90
51908;DHT22;39320;53.214;6.556;2022-07-29T01:29:06;18.00;99.90
51908;DHT22;39320;53.214;6.556;2022-07-29T01:31:43;18.00;99.90
51908;DHT22;39320;53.214;6.556;2022-07-29T01:34:15;18.00;99.90
51908;DHT22;39320;53.214;6.556;2022-07-29T01:36:57;17.90;99.90
51908;DHT22;39320;53.214;6.556;2022-07-29T01:39:30;17.90;99.90
51908;DHT22;39320;53.214;6.556;2022-07-29T01:45:11;17.90;99.90
51908;DHT22;39320;53.214;6.556;2022-07-29T01:47:44;17.90;99.90
51908;DHT22;39320;53.214;6.556;2022-07-29T01:50:15;17.90;99.90
51908;DHT22;39320;53.214;6.556;2022-07-29T01:52:59;17.90;99.90
51908;DHT22;39320;53.214;6.556;2022-07-29T01:55:29;17.90;99.90
51908;DHT22;39320;53.214;6.556;2022-07-29T01:57:57;17.90;99.90
51908;DHT22;39320;53.214;6.556;2022-07-29T02:00:25;17.90;99.90
51908;DHT22;39320;53.214;6.556;2022-07-29T02:02:53;17.90;99.90
51908;DHT22;39320;53.214;6.556;2022-07-29T02:05:21;17.80;99.90
51908;DHT22;39320;53.214;6.556;2022-07-29T02:07:49;17.90;99.90
51908;DHT22;39320;53.214;6.556;2022-07-29T02:10:19;17.80;99.90
51908;DHT22;39320;53.214;6.556;2022-07-29T02:12:47;17.80;99.90
51908;DHT22;39320;53.214;6.556;2022-07-29T02:15:15;17.70;99.90
51908;DHT22;39320;53.214;6.556;2022-07-29T02:17:52;17.80;99.90
51908;DHT22;39320;53.214;6.556;2022-07-29T02:20:19;17.70;99.90
51908;DHT22;39320;53.214;6.556;2022-07-29T02:22:47;17.70;99.90
51908;DHT22;39320;53.214;6.556;2022-07-29T02:25:15;17.80;99.90
51908;DHT22;39320;53.214;6.556;2022-07-29T02:27:42;17.80;99.90
51908;DHT22;39320;53.214;6.556;2022-07-29T02:30:09;17.70;99.90
51908;DHT22;39320;53.214;6.556;2022-07-29T02:32:37;17.70;99.90
51908;DHT22;39320;53.214;6.556;2022-07-29T02:35:06;17.80;99.90
51908;DHT22;39320;53.214;6.556;2022-07-29T02:37:32;17.80;99.90
51908;DHT22;39320;53.214;6.556;2022-07-29T02:40:00;17.80;99.90
51908;DHT22;39320;53.214;6.556;2022-07-29T02:42:27;17.80;99.90
51908;DHT22;39320;53.214;6.556;2022-07-29T02:44:56;17.80;99.90
51908;DHT22;39320;53.214;6.556;2022-07-29T02:47:27;17.80;99.90
51908;DHT22;39320;53.214;6.556;2022-07-29T02:52:57;17.80;99.90
51908;DHT22;39320;53.214;6.556;2022-07-29T02:55:46;17.70;99.90
51908;DHT22;39320;53.214;6.556;2022-07-29T02:58:25;17.70;99.90
51908;DHT22;39320;53.214;6.556;2022-07-29T03:00:56;17.70;99.90
51908;DHT22;39320;53.214;6.556;2022-07-29T03:03:25;17.80;99.90
51908;DHT22;39320;53.214;6.556;2022-07-29T03:05:55;17.80;99.90
51908;DHT22;39320;53.214;6.556;2022-07-29T03:08:23;17.80;99.90
51908;DHT22;39320;53.214;6.556;2022-07-29T03:10:49;17.80;99.90
51908;DHT22;39320;53.214;6.556;2022-07-29T03:13:16;17.80;99.90
51908;DHT22;39320;53.214;6.556;2022-07-29T03:15:43;17.70;99.90
51908;DHT22;39320;53.214;6.556;2022-07-29T03:18:10;17.70;99.90
51908;DHT22;39320;53.214;6.556;2022-07-29T03:20:37;17.70;99.90
51908;DHT22;39320;53.214;6.556;2022-07-29T03:23:03;17.60;99.90
51908;DHT22;39320;53.214;6.556;2022-07-29T03:25:30;17.60;99.90
51908;DHT22;39320;53.214;6.556;2022-07-29T03:27:56;17.60;99.90
51908;DHT22;39320;53.214;6.556;2022-07-29T03:30:23;17.60;99.90
51908;DHT22;39320;53.214;6.556;2022-07-29T03:32:50;17.60;99.90
51908;DHT22;39320;53.214;6.556;2022-07-29T03:35:16;17.50;99.90
51908;DHT22;39320;53.214;6.556;2022-07-29T03:37:43;17.50;99.90
51908;DHT22;39320;53.214;6.556;2022-07-29T03:40:10;17.50;99.90
51908;DHT22;39320;53.214;6.556;2022-07-29T03:42:39;17.50;99.90
51908;DHT22;39320;53.214;6.556;2022-07-29T03:45:07;17.40;99.90
51908;DHT22;39320;53.214;6.556;2022-07-29T03:47:36;17.40;99.90
51908;DHT22;39320;53.214;6.556;2022-07-29T03:50:06;17.30;99.90
51908;DHT22;39320;53.214;6.556;2022-07-29T03:52:33;17.30;99.90
51908;DHT22;39320;53.214;6.556;2022-07-29T03:55:00;17.40;99.90
51908;DHT22;39320;53.214;6.556;2022-07-29T03:57:28;17.40;99.90
51908;DHT22;39320;53.214;6.556;2022-07-29T03:59:56;17.40;99.90
51908;DHT22;39320;53.214;6.556;2022-07-29T04:02:22;17.50;99.90
51908;DHT22;39320;53.214;6.556;2022-07-29T04:04:48;17.40;99.90
51908;DHT22;39320;53.214;6.556;2022-07-29T04:07:15;17.50;99.90
51908;DHT22;39320;53.214;6.556;2022-07-29T04:09:41;17.50;99.90
51908;DHT22;39320;53.214;6.556;2022-07-29T04:12:07;17.50;99.90
51908;DHT22;39320;53.214;6.556;2022-07-29T04:14:34;17.50;99.90
51908;DHT22;39320;53.214;6.556;2022-07-29T04:17:04;17.60;99.90
51908;DHT22;39320;53.214;6.556;2022-07-29T04:19:31;17.60;99.90
51908;DHT22;39320;53.214;6.556;2022-07-29T04:21:58;17.60;99.90
51908;DHT22;39320;53.214;6.556;2022-07-29T04:24:24;17.50;99.90
51908;DHT22;39320;53.214;6.556;2022-07-29T04:26:49;17.60;99.90
51908;DHT22;39320;53.214;6.556;2022-07-29T04:29:15;17.60;99.90
51908;DHT22;39320;53.214;6.556;2022-07-29T04:31:41;17.60;99.90
51908;DHT22;39320;53.214;6.556;2022-07-29T04:34:07;17.70;99.90
51908;DHT22;39320;53.214;6.556;2022-07-29T04:36:34;17.70;99.90
51908;DHT22;39320;53.214;6.556;2022-07-29T04:39:00;17.70;99.90
51908;DHT22;39320;53.214;6.556;2022-07-29T04:41:29;17.70;99.90
51908;DHT22;39320;53.214;6.556;2022-07-29T04:43:54;17.70;99.90
51908;DHT22;39320;53.214;6.556;2022-07-29T04:46:20;17.70;99.90
51908;DHT22;39320;53.214;6.556;2022-07-29T04:48:46;17.70;99.90
51908;DHT22;39320;53.214;6.556;2022-07-29T04:51:16;17.70;99.90
51908;DHT22;39320;53.214;6.556;2022-07-29T04:53:42;17.70;99.90
51908;DHT22;39320;53.214;6.556;2022-07-29T04:56:08;17.70;99.90
51908;DHT22;39320;53.214;6.556;2022-07-29T04:58:34;17.70;99.90
51908;DHT22;39320;53.214;6.556;2022-07-29T05:01:00;17.70;99.90
51908;DHT22;39320;53.214;6.556;2022-07-29T05:03:26;17.70;99.90
51908;DHT22;39320;53.214;6.556;2022-07-29T05:05:52;17.70;99.90
51908;DHT22;39320;53.214;6.556;2022-07-29T05:08:18;17.70;99.90
51908;DHT22;39320;53.214;6.556;2022-07-29T05:10:43;17.70;99.90
51908;DHT22;39320;53.214;6.556;2022-07-29T05:13:09;17.70;99.90
51908;DHT22;39320;53.214;6.556;2022-07-29T05:15:36;17.70;99.90
51908;DHT22;39320;53.214;6.556;2022-07-29T05:18:02;17.70;99.90
51908;DHT22;39320;53.214;6.556;2022-07-29T05:20:28;17.70;99.90
51908;DHT22;39320;53.214;6.556;2022-07-29T05:22:58;17.70;99.90
51908;DHT22;39320;53.214;6.556;2022-07-29T05:25:26;17.70;99.90
51908;DHT22;39320;53.214;6.556;2022-07-29T05:27:52;17.70;99.90
51908;DHT22;39320;53.214;6.556;2022-07-29T05:30:18;17.70;99.90
51908;DHT22;39320;53.214;6.556;2022-07-29T05:32:44;17.70;99.90
51908;DHT22;39320;53.214;6.556;2022-07-29T05:35:10;17.70;99.90
51908;DHT22;39320;53.214;6.556;2022-07-29T05:37:36;17.70;99.90
51908;DHT22;39320;53.214;6.556;2022-07-29T05:40:02;17.70;99.90
51908;DHT22;39320;53.214;6.556;2022-07-29T05:42:28;17.80;99.90
51908;DHT22;39320;53.214;6.556;2022-07-29T05:44:54;17.70;99.90
51908;DHT22;39320;53.214;6.556;2022-07-29T05:47:20;17.70;99.90
51908;DHT22;39320;53.214;6.556;2022-07-29T05:49:46;17.70;99.90
51908;DHT22;39320;53.214;6.556;2022-07-29T05:52:12;17.70;99.90
51908;DHT22;39320;53.214;6.556;2022-07-29T05:54:39;17.70;99.90
51908;DHT22;39320;53.214;6.556;2022-07-29T05:57:05;17.70;99.90
51908;DHT22;39320;53.214;6.556;2022-07-29T05:59:35;17.70;99.90
51908;DHT22;39320;53.214;6.556;2022-07-29T06:02:01;17.70;99.90
51908;DHT22;39320;53.214;6.556;2022-07-29T06:04:28;17.70;99.90
51908;DHT22;39320;53.214;6.556;2022-07-29T06:06:53;17.70;99.90
51908;DHT22;39320;53.214;6.556;2022-07-29T06:09:19;17.70;99.90
51908;DHT22;39320;53.214;6.556;2022-07-29T06:11:45;17.70;99.90
51908;DHT22;39320;53.214;6.556;2022-07-29T06:14:10;17.80;99.90
51908;DHT22;39320;53.214;6.556;2022-07-29T06:16:36;17.80;99.90
51908;DHT22;39320;53.214;6.556;2022-07-29T06:19:02;17.80;99.90
51908;DHT22;39320;53.214;6.556;2022-07-29T06:21:28;17.90;99.90
51908;DHT22;39320;53.214;6.556;2022-07-29T06:23:54;17.90;99.90
51908;DHT22;39320;53.214;6.556;2022-07-29T06:26:20;17.90;99.90
51908;DHT22;39320;53.214;6.556;2022-07-29T06:28:46;17.90;99.90
51908;DHT22;39320;53.214;6.556;2022-07-29T06:31:11;17.90;99.90
51908;DHT22;39320;53.214;6.556;2022-07-29T06:33:37;17.90;99.90
51908;DHT22;39320;53.214;6.556;2022-07-29T06:36:06;18.00;99.90
51908;DHT22;39320;53.214;6.556;2022-07-29T06:38:33;18.00;99.90
51908;DHT22;39320;53.214;6.556;2022-07-29T06:40:59;18.00;99.90
51908;DHT22;39320;53.214;6.556;2022-07-29T06:43:34;18.00;99.90
51908;DHT22;39320;53.214;6.556;2022-07-29T06:46:15;18.00;99.90
51908;DHT22;39320;53.214;6.556;2022-07-29T06:48:43;18.00;99.90
51908;DHT22;39320;53.214;6.556;2022-07-29T06:51:09;18.10;99.90
51908;DHT22;39320;53.214;6.556;2022-07-29T06:53:37;18.10;99.90
51908;DHT22;39320;53.214;6.556;2022-07-29T06:56:05;18.00;99.90
51908;DHT22;39320;53.214;6.556;2022-07-29T06:58:31;18.00;99.90
51908;DHT22;39320;53.214;6.556;2022-07-29T07:01:00;18.00;99.90
51908;DHT22;39320;53.214;6.556;2022-07-29T07:03:26;17.90;99.90
51908;DHT22;39320;53.214;6.556;2022-07-29T07:05:53;17.90;99.90
51908;DHT22;39320;53.214;6.556;2022-07-29T07:08:20;17.90;99.90
51908;DHT22;39320;53.214;6.556;2022-07-29T07:10:46;17.90;99.90
51908;DHT22;39320;53.214;6.556;2022-07-29T07:13:12;17.90;99.90
51908;DHT22;39320;53.214;6.556;2022-07-29T07:15:38;17.90;99.90
51908;DHT22;39320;53.214;6.556;2022-07-29T07:18:05;17.90;99.90
51908;DHT22;39320;53.214;6.556;2022-07-29T07:20:34;18.00;99.90
51908;DHT22;39320;53.214;6.556;2022-07-29T07:22:59;18.00;99.90
51908;DHT22;39320;53.214;6.556;2022-07-29T07:25:25;18.10;99.90
51908;DHT22;39320;53.214;6.556;2022-07-29T07:27:51;18.10;99.90
51908;DHT22;39320;53.214;6.556;2022-07-29T07:30:17;18.10;99.90
51908;DHT22;39320;53.214;6.556;2022-07-29T07:32:42;18.10;99.90
51908;DHT22;39320;53.214;6.556;2022-07-29T07:35:09;18.10;99.90
51908;DHT22;39320;53.214;6.556;2022-07-29T07:37:35;18.10;99.90
51908;DHT22;39320;53.214;6.556;2022-07-29T07:40:02;18.10;99.90
51908;DHT22;39320;53.214;6.556;2022-07-29T07:42:28;18.10;99.90
51908;DHT22;39320;53.214;6.556;2022-07-29T07:44:54;18.10;99.90
51908;DHT22;39320;53.214;6.556;2022-07-29T07:47:20;18.10;99.90
51908;DHT22;39320;53.214;6.556;2022-07-29T07:49:49;18.20;99.90
51908;DHT22;39320;53.214;6.556;2022-07-29T07:52:16;18.20;99.90
51908;DHT22;39320;53.214;6.556;2022-07-29T07:54:43;18.20;99.90
51908;DHT22;39320;53.214;6.556;2022-07-29T07:57:11;18.20;99.90
51908;DHT22;39320;53.214;6.556;2022-07-29T07:59:37;18.20;99.90
51908;DHT22;39320;53.214;6.556;2022-07-29T08:02:03;18.20;99.90
51908;DHT22;39320;53.214;6.556;2022-07-29T08:04:29;18.20;99.90
51908;DHT22;39320;53.214;6.556;2022-07-29T08:06:56;18.30;99.90
51908;DHT22;39320;53.214;6.556;2022-07-29T08:09:23;18.20;99.90
51908;DHT22;39320;53.214;6.556;2022-07-29T08:11:50;18.20;99.90
51908;DHT22;39320;53.214;6.556;2022-07-29T08:14:16;18.20;99.90
51908;DHT22;39320;53.214;6.556;2022-07-29T08:16:42;18.20;99.90
51908;DHT22;39320;53.214;6.556;2022-07-29T08:19:08;18.20;99.90
51908;DHT22;39320;53.214;6.556;2022-07-29T08:21:34;18.20;99.90
51908;DHT22;39320;53.214;6.556;2022-07-29T08:24:00;18.20;99.90
51908;DHT22;39320;53.214;6.556;2022-07-29T08:26:45;18.20;99.90
51908;DHT22;39320;53.214;6.556;2022-07-29T08:29:11;18.20;99.90
51908;DHT22;39320;53.214;6.556;2022-07-29T08:31:37;18.20;99.90
51908;DHT22;39320;53.214;6.556;2022-07-29T08:34:03;18.20;99.90
51908;DHT22;39320;53.214;6.556;2022-07-29T08:36:30;18.30;99.90
51908;DHT22;39320;53.214;6.556;2022-07-29T08:38:56;18.30;99.90
51908;DHT22;39320;53.214;6.556;2022-07-29T08:41:22;18.30;99.90
51908;DHT22;39320;53.214;6.556;2022-07-29T08:43:48;18.40;99.90
51908;DHT22;39320;53.214;6.556;2022-07-29T08:46:15;18.40;99.90
51908;DHT22;39320;53.214;6.556;2022-07-29T08:48:41;18.50;99.90
51908;DHT22;39320;53.214;6.556;2022-07-29T08:51:07;18.50;99.90
51908;DHT22;39320;53.214;6.556;2022-07-29T08:53:34;18.50;99.90
51908;DHT22;39320;53.214;6.556;2022-07-29T08:56:00;18.40;99.90
51908;DHT22;39320;53.214;6.556;2022-07-29T08:58:31;18.60;99.90
51908;DHT22;39320;53.214;6.556;2022-07-29T09:01:01;18.50;99.90
51908;DHT22;39320;53.214;6.556;2022-07-29T09:03:31;18.50;99.90
51908;DHT22;39320;53.214;6.556;2022-07-29T09:05:58;18.50;99.90
51908;DHT22;39320;53.214;6.556;2022-07-29T09:08:25;18.50;99.90
51908;DHT22;39320;53.214;6.556;2022-07-29T09:10:51;18.50;99.90
51908;DHT22;39320;53.214;6.556;2022-07-29T09:13:17;18.50;99.90
51908;DHT22;39320;53.214;6.556;2022-07-29T09:15:44;18.50;99.90
51908;DHT22;39320;53.214;6.556;2022-07-29T09:18:10;18.60;99.90
51908;DHT22;39320;53.214;6.556;2022-07-29T09:20:35;18.60;99.90
51908;DHT22;39320;53.214;6.556;2022-07-29T09:23:19;18.60;99.90
51908;DHT22;39320;53.214;6.556;2022-07-29T09:25:45;18.70;99.90
51908;DHT22;39320;53.214;6.556;2022-07-29T09:28:17;18.70;99.90
51908;DHT22;39320;53.214;6.556;2022-07-29T09:30:53;18.70;99.90
51908;DHT22;39320;53.214;6.556;2022-07-29T09:33:24;18.70;99.90
51908;DHT22;39320;53.214;6.556;2022-07-29T09:36:19;18.70;99.90
51908;DHT22;39320;53.214;6.556;2022-07-29T09:38:57;18.70;99.90
51908;DHT22;39320;53.214;6.556;2022-07-29T09:41:23;18.70;99.90
51908;DHT22;39320;53.214;6.556;2022-07-29T09:43:59;18.70;99.90
51908;DHT22;39320;53.214;6.556;2022-07-29T09:46:25;18.70;99.90
51908;DHT22;39320;53.214;6.556;2022-07-29T09:49:14;18.70;99.90
51908;DHT22;39320;53.214;6.556;2022-07-29T09:51:40;18.80;99.90
51908;DHT22;39320;53.214;6.556;2022-07-29T09:54:26;18.70;99.90
51908;DHT22;39320;53.214;6.556;2022-07-29T09:56:56;18.80;99.90
51908;DHT22;39320;53.214;6.556;2022-07-29T09:59:22;18.80;99.90
51908;DHT22;39320;53.214;6.556;2022-07-29T10:01:52;18.80;99.90
51908;DHT22;39320;53.214;6.556;2022-07-29T10:04:18;18.70;99.90
51908;DHT22;39320;53.214;6.556;2022-07-29T10:07:02;18.80;99.90
51908;DHT22;39320;53.214;6.556;2022-07-29T10:09:30;18.80;99.90
51908;DHT22;39320;53.214;6.556;2022-07-29T10:12:10;18.80;99.90
51908;DHT22;39320;53.214;6.556;2022-07-29T10:14:38;18.80;99.90
51908;DHT22;39320;53.214;6.556;2022-07-29T10:17:05;18.80;99.90
51908;DHT22;39320;53.214;6.556;2022-07-29T10:19:33;18.80;99.90
51908;DHT22;39320;53.214;6.556;2022-07-29T10:22:00;18.80;99.90
51908;DHT22;39320;53.214;6.556;2022-07-29T10:24:28;18.90;99.90
51908;DHT22;39320;53.214;6.556;2022-07-29T10:26:59;18.90;99.90
51908;DHT22;39320;53.214;6.556;2022-07-29T10:29:25;18.90;99.90
51908;DHT22;39320;53.214;6.556;2022-07-29T10:37:37;19.00;99.90
51908;DHT22;39320;53.214;6.556;2022-07-29T10:43:40;19.00;99.90
51908;DHT22;39320;53.214;6.556;2022-07-29T10:46:07;19.00;99.90
51908;DHT22;39320;53.214;6.556;2022-07-29T10:48:32;19.10;99.90
51908;DHT22;39320;53.214;6.556;2022-07-29T10:51:00;19.10;99.90
51908;DHT22;39320;53.214;6.556;2022-07-29T10:56:28;19.10;99.90
51908;DHT22;39320;53.214;6.556;2022-07-29T11:01:46;19.10;99.90
51908;DHT22;39320;53.214;6.556;2022-07-29T11:04:13;19.10;99.90
51908;DHT22;39320;53.214;6.556;2022-07-29T11:09:29;19.20;99.90
51908;DHT22;39320;53.214;6.556;2022-07-29T11:11:58;19.20;99.90
51908;DHT22;39320;53.214;6.556;2022-07-29T11:14:55;19.20;99.90
51908;DHT22;39320;53.214;6.556;2022-07-29T11:17:21;19.20;99.90
51908;DHT22;39320;53.214;6.556;2022-07-29T11:19:47;19.20;99.90
51908;DHT22;39320;53.214;6.556;2022-07-29T11:22:32;19.20;99.90
51908;DHT22;39320;53.214;6.556;2022-07-29T11:25:17;19.30;99.90
51908;DHT22;39320;53.214;6.556;2022-07-29T11:27:44;19.30;99.90
51908;DHT22;39320;53.214;6.556;2022-07-29T11:30:11;19.30;99.90
51908;DHT22;39320;53.214;6.556;2022-07-29T11:32:39;19.30;99.90
51908;DHT22;39320;53.214;6.556;2022-07-29T11:35:18;19.30;99.90
51908;DHT22;39320;53.214;6.556;2022-07-29T11:38:25;19.40;99.90
51908;DHT22;39320;53.214;6.556;2022-07-29T11:43:47;19.40;99.90
51908;DHT22;39320;53.214;6.556;2022-07-29T11:46:13;19.50;99.90
51908;DHT22;39320;53.214;6.556;2022-07-29T11:48:43;19.60;99.90
51908;DHT22;39320;53.214;6.556;2022-07-29T11:51:10;19.60;99.90
51908;DHT22;39320;53.214;6.556;2022-07-29T11:53:38;19.70;99.90
51908;DHT22;39320;53.214;6.556;2022-07-29T11:56:08;19.70;99.90
51908;DHT22;39320;53.214;6.556;2022-07-29T11:58:34;19.80;99.90
51908;DHT22;39320;53.214;6.556;2022-07-29T12:01:01;19.80;99.90
51908;DHT22;39320;53.214;6.556;2022-07-29T12:03:28;19.90;99.90
51908;DHT22;39320;53.214;6.556;2022-07-29T12:05:54;20.00;99.90
51908;DHT22;39320;53.214;6.556;2022-07-29T12:08:22;20.00;99.90
51908;DHT22;39320;53.214;6.556;2022-07-29T12:10:50;20.10;99.90
51908;DHT22;39320;53.214;6.556;2022-07-29T12:13:17;20.20;99.90
51908;DHT22;39320;53.214;6.556;2022-07-29T12:15:52;20.20;99.90
51908;DHT22;39320;53.214;6.556;2022-07-29T12:18:19;20.30;99.90
51908;DHT22;39320;53.214;6.556;2022-07-29T12:20:46;20.30;99.90
51908;DHT22;39320;53.214;6.556;2022-07-29T12:23:13;20.40;99.90
51908;DHT22;39320;53.214;6.556;2022-07-29T12:25:40;20.40;99.90
51908;DHT22;39320;53.214;6.556;2022-07-29T12:28:09;20.50;99.90
51908;DHT22;39320;53.214;6.556;2022-07-29T12:30:43;20.50;99.90
51908;DHT22;39320;53.214;6.556;2022-07-29T12:33:21;20.50;99.90
51908;DHT22;39320;53.214;6.556;2022-07-29T12:35:50;20.50;99.90
51908;DHT22;39320;53.214;6.556;2022-07-29T12:38:17;20.60;99.90
51908;DHT22;39320;53.214;6.556;2022-07-29T12:40:45;20.60;99.90
51908;DHT22;39320;53.214;6.556;2022-07-29T12:43:18;20.60;99.90
51908;DHT22;39320;53.214;6.556;2022-07-29T12:45:47;20.70;99.90
51908;DHT22;39320;53.214;6.556;2022-07-29T12:48:14;20.70;99.80
51908;DHT22;39320;53.214;6.556;2022-07-29T12:50:58;20.70;99.60
51908;DHT22;39320;53.214;6.556;2022-07-29T12:53:25;20.70;99.30
51908;DHT22;39320;53.214;6.556;2022-07-29T12:55:53;20.80;99.40
51908;DHT22;39320;53.214;6.556;2022-07-29T13:01:08;20.80;99.10
51908;DHT22;39320;53.214;6.556;2022-07-29T13:03:55;20.90;98.80
51908;DHT22;39320;53.214;6.556;2022-07-29T13:09:00;21.00;97.70
51908;DHT22;39320;53.214;6.556;2022-07-29T13:11:31;21.10;97.50
51908;DHT22;39320;53.214;6.556;2022-07-29T13:13:57;21.30;97.50
51908;DHT22;39320;53.214;6.556;2022-07-29T13:16:23;21.30;97.30
51908;DHT22;39320;53.214;6.556;2022-07-29T13:19:11;21.30;96.80
51908;DHT22;39320;53.214;6.556;2022-07-29T13:21:38;21.40;96.30
51908;DHT22;39320;53.214;6.556;2022-07-29T13:24:07;21.40;96.30
51908;DHT22;39320;53.214;6.556;2022-07-29T13:26:34;21.50;96.20
51908;DHT22;39320;53.214;6.556;2022-07-29T13:29:00;21.60;96.40
51908;DHT22;39320;53.214;6.556;2022-07-29T13:31:26;21.70;96.50
51908;DHT22;39320;53.214;6.556;2022-07-29T13:33:52;21.80;96.50
51908;DHT22;39320;53.214;6.556;2022-07-29T13:36:17;21.90;96.50
51908;DHT22;39320;53.214;6.556;2022-07-29T13:38:43;22.00;95.90
51908;DHT22;39320;53.214;6.556;2022-07-29T13:41:10;22.10;94.90
51908;DHT22;39320;53.214;6.556;2022-07-29T13:43:38;22.20;94.40
51908;DHT22;39320;53.214;6.556;2022-07-29T13:46:04;22.20;94.20
51908;DHT22;39320;53.214;6.556;2022-07-29T13:48:29;22.40;93.90
51908;DHT22;39320;53.214;6.556;2022-07-29T13:50:56;22.50;93.80
51908;DHT22;39320;53.214;6.556;2022-07-29T13:53:22;22.60;93.90
51908;DHT22;39320;53.214;6.556;2022-07-29T13:55:47;22.60;93.60
51908;DHT22;39320;53.214;6.556;2022-07-29T13:58:13;22.70;93.40
51908;DHT22;39320;53.214;6.556;2022-07-29T14:00:39;22.70;93.00
51908;DHT22;39320;53.214;6.556;2022-07-29T14:03:05;22.70;92.80
51908;DHT22;39320;53.214;6.556;2022-07-29T14:05:31;22.80;93.10
51908;DHT22;39320;53.214;6.556;2022-07-29T14:07:57;22.90;93.00
51908;DHT22;39320;53.214;6.556;2022-07-29T14:10:23;23.00;92.90
51908;DHT22;39320;53.214;6.556;2022-07-29T14:12:48;23.00;92.90
51908;DHT22;39320;53.214;6.556;2022-07-29T14:15:14;23.10;92.80
51908;DHT22;39320;53.214;6.556;2022-07-29T14:17:40;23.20;92.40
51908;DHT22;39320;53.214;6.556;2022-07-29T14:20:06;23.30;92.00
51908;DHT22;39320;53.214;6.556;2022-07-29T14:22:32;23.30;91.00
51908;DHT22;39320;53.214;6.556;2022-07-29T14:24:58;23.40;90.80
51908;DHT22;39320;53.214;6.556;2022-07-29T14:27:24;23.50;90.40
51908;DHT22;39320;53.214;6.556;2022-07-29T14:29:50;23.50;90.10
51908;DHT22;39320;53.214;6.556;2022-07-29T14:32:15;23.60;90.10
51908;DHT22;39320;53.214;6.556;2022-07-29T14:34:41;23.70;90.00
51908;DHT22;39320;53.214;6.556;2022-07-29T14:37:07;23.70;89.10
51908;DHT22;39320;53.214;6.556;2022-07-29T14:39:34;23.80;88.40
51908;DHT22;39320;53.214;6.556;2022-07-29T14:42:01;23.90;87.50
51908;DHT22;39320;53.214;6.556;2022-07-29T14:44:27;23.90;86.10
51908;DHT22;39320;53.214;6.556;2022-07-29T14:46:57;24.00;85.00
51908;DHT22;39320;53.214;6.556;2022-07-29T14:49:25;24.00;84.40
51908;DHT22;39320;53.214;6.556;2022-07-29T14:51:50;24.00;84.20
51908;DHT22;39320;53.214;6.556;2022-07-29T14:54:17;24.10;84.20
51908;DHT22;39320;53.214;6.556;2022-07-29T14:56:42;24.10;84.70
51908;DHT22;39320;53.214;6.556;2022-07-29T14:59:08;24.10;85.10
51908;DHT22;39320;53.214;6.556;2022-07-29T15:01:34;24.20;86.10
51908;DHT22;39320;53.214;6.556;2022-07-29T15:04:01;24.20;87.00
51908;DHT22;39320;53.214;6.556;2022-07-29T15:06:27;24.30;86.20
51908;DHT22;39320;53.214;6.556;2022-07-29T15:08:53;24.40;85.50
51908;DHT22;39320;53.214;6.556;2022-07-29T15:11:19;24.40;85.00
51908;DHT22;39320;53.214;6.556;2022-07-29T15:13:44;24.40;85.30
51908;DHT22;39320;53.214;6.556;2022-07-29T15:16:10;24.40;86.00
51908;DHT22;39320;53.214;6.556;2022-07-29T15:18:36;24.50;85.70
51908;DHT22;39320;53.214;6.556;2022-07-29T15:21:04;24.50;85.60
51908;DHT22;39320;53.214;6.556;2022-07-29T15:23:31;24.50;85.30
51908;DHT22;39320;53.214;6.556;2022-07-29T15:25:57;24.50;84.60
51908;DHT22;39320;53.214;6.556;2022-07-29T15:28:23;24.40;84.30
51908;DHT22;39320;53.214;6.556;2022-07-29T15:30:49;24.50;84.00
51908;DHT22;39320;53.214;6.556;2022-07-29T15:33:14;24.50;83.50
51908;DHT22;39320;53.214;6.556;2022-07-29T15:35:40;24.60;82.90
51908;DHT22;39320;53.214;6.556;2022-07-29T15:38:06;24.70;82.10
51908;DHT22;39320;53.214;6.556;2022-07-29T15:40:31;24.70;81.80
51908;DHT22;39320;53.214;6.556;2022-07-29T15:42:57;24.70;82.00
51908;DHT22;39320;53.214;6.556;2022-07-29T15:45:26;24.80;81.00
51908;DHT22;39320;53.214;6.556;2022-07-29T15:47:52;24.70;80.20
51908;DHT22;39320;53.214;6.556;2022-07-29T15:50:18;24.80;80.50
51908;DHT22;39320;53.214;6.556;2022-07-29T15:52:44;24.90;80.60
51908;DHT22;39320;53.214;6.556;2022-07-29T15:55:10;24.90;80.50
51908;DHT22;39320;53.214;6.556;2022-07-29T15:57:36;24.90;80.40
51908;DHT22;39320;53.214;6.556;2022-07-29T16:00:03;24.90;80.30
51908;DHT22;39320;53.214;6.556;2022-07-29T16:02:29;24.90;80.00
51908;DHT22;39320;53.214;6.556;2022-07-29T16:04:56;24.90;79.60
51908;DHT22;39320;53.214;6.556;2022-07-29T16:07:21;24.90;79.00
51908;DHT22;39320;53.214;6.556;2022-07-29T16:09:47;24.90;78.90
51908;DHT22;39320;53.214;6.556;2022-07-29T16:12:13;24.90;79.40
51908;DHT22;39320;53.214;6.556;2022-07-29T16:14:38;24.90;79.70